ΕΜΥ, Εθνική Μετεωρολογική Υπηρεσία - Δελτία Καιρού, Προγνώσεις

ΑΕΡΟΝΑΥΤΙΛΙΑ

GREEK AIRPORTS CODES

TAF LGSR 262300Z 2700/2724 18016KT 9999 SCT020 BECMG 2710/2712 25024KT BECMG 2718/2720 31018KT=

EUROPEAN AIRPORTS CODES

LFPO 270230Z 19008KT CAVOK 03/01 Q1008 NOSIG=